NZCHNZQN

Guest
Details From NZCH - Christchurch Intl
To NZQN - Queenstown
Flight Number -
Tags Generated
Created
Modified
Stats Distance 187 nm / 347 km
Max Altitude 0 ft / 0 m
Waypoints 2
Social Downloads 19
Likes 0
Share VATSIM

Download

Looking for another format? Having issues loading an existing format? Contact us
Advertisement - Login to hide

Notes

Generated

Route

NZCH NZQN

ID Type Via Altitude Latitude Longitude Leg Dist Tot Dist Heading (true) Name
O NZCH APT - 0 ft / 0 m -43.48591˚ 172.53083˚ - 0 nm - Christchurch Intl
O NZQN APT - 0 ft / 0 m -45.02010˚ 168.74263˚ 187 nm 187 nm 239° / 242° -

Altitude Profile

Advertisement - Login to hide

Weather


0- 5 10 15 20 25 30 35+ Temperature / ° C

Clouds and Precipitation
Forecast for 2017-12-12 06:00 UTC. Updated 2 hours ago

Ground ~20,000 ft ~40,000 ft Winds

NZCH

Details ICAO NZCH (CHC)
Name Christchurch Intl
Region New Zealand and Antarctica
Timezone Pacific/Auckland (UTC+13.0)
Stats Elevation 123 ft / 37 m (AMSL)
Location -43.486640° 172.533682°
Runways 3
Magnetic Variation 23.860° E

METAR

NZCH 120230Z AUTO 07011KT 050V110 9999 BKN022/// OVC027/// 15/11 Q1010 TEMPO 5000 RA

Decode

TAF

TAF AMD NZCH 112356Z 1200/1300 07010KT 9999 -RA BKN018 TEMPO 1200/1208 4000 RA TEMPO 1208/1220 4000 RA BKN012 BECMG 1210/1212 20008KT TEMPO 1220/1300 6000 RA BECMG 1222/1300 07010KT

Decode

Departure Runways

ID Width Length Bearing (true) Bearing (mag) Surface Threshold Offset Overrun Length
02 148 ft / 45 m 10,783 ft / 3,287 m 39.99° 16.13° Asphalt 0 ft / 0 m 0 ft / 0 m
02L 443 ft / 135 m 1,785 ft / 544 m 40.05° 16.19° Grass 0 ft / 0 m 0 ft / 0 m
11 148 ft / 45 m 5,709 ft / 1,740 m 130.18° 106.32° Asphalt 0 ft / 0 m 0 ft / 0 m
20 148 ft / 45 m 10,783 ft / 3,287 m 219.98° 196.12° Asphalt 0 ft / 0 m 0 ft / 0 m
20R 443 ft / 135 m 1,785 ft / 544 m 220.05° 196.19° Grass 0 ft / 0 m 0 ft / 0 m
29 148 ft / 45 m 5,709 ft / 1,740 m 310.17° 286.31° Asphalt 0 ft / 0 m 0 ft / 0 m

NZQN

Details ICAO NZQN (ZQN)
Name Queenstown
Region New Zealand and Antarctica
Timezone Pacific/Auckland (UTC+13.0)
Stats Elevation 1,171 ft / 357 m (AMSL)
Location -45.020546° 168.745402°
Runways 3
Magnetic Variation 24.418° E

METAR

Not found

TAF

TAF AMD NZQN 120247Z 1202/1212 24015KT 9999 FEW060 FM120700 23005KT 9999 FEW030 BKN060

Decode

Destination Runways

ID Width Length Bearing (true) Bearing (mag) Surface Threshold Offset Overrun Length
05L 121 ft / 37 m 2,516 ft / 767 m 75.96° 51.54° Grass 0 ft / 0 m 0 ft / 0 m
05R 116 ft / 35 m 6,056 ft / 1,846 m 75.96° 51.54° Asphalt 367 ft / 112 m 0 ft / 0 m
14 167 ft / 51 m 3,157 ft / 962 m 161.16° 136.74° Grass 33 ft / 10 m 0 ft / 0 m
23L 116 ft / 35 m 6,056 ft / 1,846 m 255.94° 231.52° Asphalt 187 ft / 57 m 0 ft / 0 m
23R 121 ft / 37 m 2,516 ft / 767 m 255.96° 231.54° Grass 0 ft / 0 m 0 ft / 0 m
32 167 ft / 51 m 3,157 ft / 962 m 341.16° 316.74° Grass 66 ft / 20 m 0 ft / 0 m

Popular Alternatives